sensor_id;sensor_type;location;lat;lon;timestamp;pressure;altitude;pressure_sealevel;temperature;humidity
66486;BME280;53303;47.476;8.084;2023-02-22T00:00:52;95124.78;;;20.12;36.12
66486;BME280;53303;47.476;8.084;2023-02-22T00:03:30;95138.06;;;20.14;35.63
66486;BME280;53303;47.476;8.084;2023-02-22T00:06:04;95139.31;;;20.19;36.01
66486;BME280;53303;47.476;8.084;2023-02-22T00:08:32;95156.63;;;20.25;35.88
66486;BME280;53303;47.476;8.084;2023-02-22T00:11:06;95132.31;;;20.12;35.99
66486;BME280;53303;47.476;8.084;2023-02-22T00:13:37;95122.00;;;20.12;36.07
66486;BME280;53303;47.476;8.084;2023-02-22T00:16:06;95136.31;;;20.16;36.09
66486;BME280;53303;47.476;8.084;2023-02-22T00:18:32;95106.72;;;20.00;35.91
66486;BME280;53303;47.476;8.084;2023-02-22T00:21:01;95142.03;;;20.24;35.91
66486;BME280;53303;47.476;8.084;2023-02-22T00:23:30;95139.28;;;20.24;36.18
66486;BME280;53303;47.476;8.084;2023-02-22T00:25:58;95115.72;;;20.06;36.06
66486;BME280;53303;47.476;8.084;2023-02-22T00:28:24;95118.72;;;20.08;35.98
66486;BME280;53303;47.476;8.084;2023-02-22T00:30:53;95119.22;;;20.12;35.93
66486;BME280;53303;47.476;8.084;2023-02-22T00:33:19;95127.25;;;20.16;35.95
66486;BME280;53303;47.476;8.084;2023-02-22T00:35:44;95108.16;;;20.07;35.95
66486;BME280;53303;47.476;8.084;2023-02-22T00:38:11;95127.44;;;20.24;35.92
66486;BME280;53303;47.476;8.084;2023-02-22T00:40:42;95111.94;;;20.09;36.15
66486;BME280;53303;47.476;8.084;2023-02-22T00:43:12;95122.97;;;20.15;35.99
66486;BME280;53303;47.476;8.084;2023-02-22T00:45:41;95089.63;;;19.96;35.86
66486;BME280;53303;47.476;8.084;2023-02-22T00:48:08;95123.72;;;20.15;35.84
66486;BME280;53303;47.476;8.084;2023-02-22T00:50:33;95118.47;;;20.12;36.04
66486;BME280;53303;47.476;8.084;2023-02-22T00:53:04;95130.03;;;20.16;35.99
66486;BME280;53303;47.476;8.084;2023-02-22T00:55:34;95112.19;;;20.11;36.01
66486;BME280;53303;47.476;8.084;2023-02-22T00:58:00;95112.91;;;20.12;35.90
66486;BME280;53303;47.476;8.084;2023-02-22T01:02:52;95105.59;;;20.14;36.24
66486;BME280;53303;47.476;8.084;2023-02-22T01:05:22;95118.38;;;20.23;35.98
66486;BME280;53303;47.476;8.084;2023-02-22T01:07:52;95117.63;;;20.23;36.02
66486;BME280;53303;47.476;8.084;2023-02-22T01:10:19;95120.38;;;20.23;35.90
66486;BME280;53303;47.476;8.084;2023-02-22T01:12:46;95119.13;;;20.24;35.85
66486;BME280;53303;47.476;8.084;2023-02-22T01:15:13;95102.78;;;20.20;36.01
66486;BME280;53303;47.476;8.084;2023-02-22T01:17:41;95111.63;;;20.19;35.85
66486;BME280;53303;47.476;8.084;2023-02-22T01:20:10;95113.63;;;20.18;35.84
66486;BME280;53303;47.476;8.084;2023-02-22T01:22:46;95114.84;;;20.23;35.50
66486;BME280;53303;47.476;8.084;2023-02-22T01:25:16;95091.28;;;20.10;35.99
66486;BME280;53303;47.476;8.084;2023-02-22T01:27:45;95081.75;;;20.06;35.90
66486;BME280;53303;47.476;8.084;2023-02-22T01:30:12;95117.38;;;20.21;36.02
66486;BME280;53303;47.476;8.084;2023-02-22T01:32:39;95103.75;;;20.23;35.97
66486;BME280;53303;47.476;8.084;2023-02-22T01:35:08;95101.28;;;20.19;35.88
66486;BME280;53303;47.476;8.084;2023-02-22T01:37:34;95088.78;;;20.07;35.90
66486;BME280;53303;47.476;8.084;2023-02-22T01:40:01;95104.81;;;20.20;35.89
66486;BME280;53303;47.476;8.084;2023-02-22T01:42:27;95088.28;;;20.08;35.87
66486;BME280;53303;47.476;8.084;2023-02-22T01:50:24;95094.03;;;20.10;35.83
66486;BME280;53303;47.476;8.084;2023-02-22T01:52:50;95074.69;;;20.05;35.83
66486;BME280;53303;47.476;8.084;2023-02-22T01:55:19;95080.19;;;20.10;35.92
66486;BME280;53303;47.476;8.084;2023-02-22T01:57:46;95072.16;;;20.07;35.99
66486;BME280;53303;47.476;8.084;2023-02-22T02:00:15;95094.72;;;20.22;35.79
66486;BME280;53303;47.476;8.084;2023-02-22T02:02:48;95087.47;;;20.13;35.85
66486;BME280;53303;47.476;8.084;2023-02-22T02:05:16;95093.97;;;20.22;35.74
66486;BME280;53303;47.476;8.084;2023-02-22T02:07:42;95068.66;;;20.06;35.78
66486;BME280;53303;47.476;8.084;2023-02-22T02:10:12;95083.91;;;20.19;35.89
66486;BME280;53303;47.476;8.084;2023-02-22T02:12:42;95082.13;;;20.21;35.78
66486;BME280;53303;47.476;8.084;2023-02-22T02:17:41;95065.66;;;20.04;35.72
66486;BME280;53303;47.476;8.084;2023-02-22T02:20:21;95059.88;;;20.02;35.82
66486;BME280;53303;47.476;8.084;2023-02-22T02:25:46;95076.41;;;20.13;35.83
66486;BME280;53303;47.476;8.084;2023-02-22T02:34:02;95068.09;;;20.13;35.77
66486;BME280;53303;47.476;8.084;2023-02-22T02:36:33;95073.84;;;20.15;35.85
66486;BME280;53303;47.476;8.084;2023-02-22T02:39:09;95066.31;;;20.16;35.78
66486;BME280;53303;47.476;8.084;2023-02-22T02:41:42;95040.78;;;19.99;35.90
66486;BME280;53303;47.476;8.084;2023-02-22T02:44:35;95058.75;;;20.16;35.77
66486;BME280;53303;47.476;8.084;2023-02-22T02:49:39;95038.25;;;20.01;35.87
66486;BME280;53303;47.476;8.084;2023-02-22T02:52:09;95052.69;;;20.18;35.84
66486;BME280;53303;47.476;8.084;2023-02-22T02:54:41;95051.19;;;20.17;35.77
66486;BME280;53303;47.476;8.084;2023-02-22T02:57:07;95055.25;;;20.16;35.76
66486;BME280;53303;47.476;8.084;2023-02-22T02:59:36;95038.91;;;20.12;35.42
66486;BME280;53303;47.476;8.084;2023-02-22T03:07:27;95042.88;;;20.17;35.80
66486;BME280;53303;47.476;8.084;2023-02-22T03:21:05;95034.34;;;20.15;35.78
66486;BME280;53303;47.476;8.084;2023-02-22T03:23:47;95017.84;;;19.98;35.80
66486;BME280;53303;47.476;8.084;2023-02-22T03:26:23;95004.81;;;19.93;35.74
66486;BME280;53303;47.476;8.084;2023-02-22T03:28:53;94993.03;;;19.87;35.88
66486;BME280;53303;47.476;8.084;2023-02-22T03:31:26;95036.38;;;20.14;35.71
66486;BME280;53303;47.476;8.084;2023-02-22T03:34:13;95019.66;;;19.95;35.56
66486;BME280;53303;47.476;8.084;2023-02-22T03:36:46;95010.81;;;19.97;35.68
66486;BME280;53303;47.476;8.084;2023-02-22T03:39:14;95027.09;;;20.06;35.72
66486;BME280;53303;47.476;8.084;2023-02-22T03:41:43;95033.59;;;20.14;35.66
66486;BME280;53303;47.476;8.084;2023-02-22T03:44:15;95006.31;;;19.94;35.71
66486;BME280;53303;47.476;8.084;2023-02-22T03:46:47;95021.38;;;19.99;35.48
66486;BME280;53303;47.476;8.084;2023-02-22T03:49:19;95030.81;;;20.14;35.80
66486;BME280;53303;47.476;8.084;2023-02-22T03:51:51;95016.81;;;20.01;35.77
66486;BME280;53303;47.476;8.084;2023-02-22T03:54:16;95015.34;;;20.00;35.65
66486;BME280;53303;47.476;8.084;2023-02-22T03:57:02;95022.06;;;20.05;35.64
66486;BME280;53303;47.476;8.084;2023-02-22T03:59:31;95032.59;;;20.12;35.74
66486;BME280;53303;47.476;8.084;2023-02-22T04:01:56;95026.66;;;20.02;35.60
66486;BME280;53303;47.476;8.084;2023-02-22T04:04:23;95038.34;;;20.14;35.66
66486;BME280;53303;47.476;8.084;2023-02-22T04:06:50;95005.81;;;19.95;35.60
66486;BME280;53303;47.476;8.084;2023-02-22T04:09:16;95014.06;;;20.01;35.67
66486;BME280;53303;47.476;8.084;2023-02-22T04:11:44;95036.13;;;20.12;35.34
66486;BME280;53303;47.476;8.084;2023-02-22T04:14:10;95022.06;;;20.05;35.57
66486;BME280;53303;47.476;8.084;2023-02-22T04:16:35;95030.59;;;20.12;35.61
66486;BME280;53303;47.476;8.084;2023-02-22T04:19:00;95018.84;;;20.01;35.73
66486;BME280;53303;47.476;8.084;2023-02-22T04:21:28;95014.09;;;19.95;35.56
66486;BME280;53303;47.476;8.084;2023-02-22T04:23:54;95012.31;;;19.98;35.60
66486;BME280;53303;47.476;8.084;2023-02-22T04:26:21;95017.53;;;20.07;35.62
66486;BME280;53303;47.476;8.084;2023-02-22T04:28:51;95021.50;;;20.12;35.58
66486;BME280;53303;47.476;8.084;2023-02-22T04:31:16;95020.78;;;20.11;35.59
66486;BME280;53303;47.476;8.084;2023-02-22T04:33:44;95000.03;;;19.93;35.61
66486;BME280;53303;47.476;8.084;2023-02-22T04:36:10;95020.78;;;20.11;35.59
66486;BME280;53303;47.476;8.084;2023-02-22T04:38:37;95031.09;;;20.11;35.68
66486;BME280;53303;47.476;8.084;2023-02-22T04:41:05;94989.97;;;19.90;35.58
66486;BME280;53303;47.476;8.084;2023-02-22T04:43:30;95008.28;;;19.99;35.57
66486;BME280;53303;47.476;8.084;2023-02-22T04:45:56;95010.25;;;20.04;35.69
66486;BME280;53303;47.476;8.084;2023-02-22T04:48:21;94997.25;;;19.93;35.61
66486;BME280;53303;47.476;8.084;2023-02-22T04:50:49;95005.75;;;20.01;35.66
66486;BME280;53303;47.476;8.084;2023-02-22T04:53:16;94983.25;;;19.86;35.61
66486;BME280;53303;47.476;8.084;2023-02-22T04:55:46;94975.25;;;19.76;35.71
66486;BME280;53303;47.476;8.084;2023-02-22T04:58:12;94986.53;;;19.84;35.39
66486;BME280;53303;47.476;8.084;2023-02-22T05:00:37;95000.03;;;19.93;35.29
66486;BME280;53303;47.476;8.084;2023-02-22T05:03:05;94992.25;;;19.92;35.51
66486;BME280;53303;47.476;8.084;2023-02-22T05:05:30;94982.41;;;19.91;35.01
66486;BME280;53303;47.476;8.084;2023-02-22T05:07:56;95001.22;;;19.98;35.33
66486;BME280;53303;47.476;8.084;2023-02-22T05:10:23;94995.47;;;19.96;35.10
66486;BME280;53303;47.476;8.084;2023-02-22T05:12:49;94984.72;;;19.87;35.19
66486;BME280;53303;47.476;8.084;2023-02-22T05:15:20;95010.03;;;20.02;35.11
66486;BME280;53303;47.476;8.084;2023-02-22T05:17:49;95003.03;;;19.95;35.37
66486;BME280;53303;47.476;8.084;2023-02-22T05:20:27;94996.53;;;19.93;34.86
66486;BME280;53303;47.476;8.084;2023-02-22T05:22:57;95022.81;;;20.05;35.51
66486;BME280;53303;47.476;8.084;2023-02-22T05:25:24;95017.28;;;20.05;35.50
66486;BME280;53303;47.476;8.084;2023-02-22T05:27:58;95017.81;;;20.04;35.37
66486;BME280;53303;47.476;8.084;2023-02-22T05:30:29;95022.06;;;20.05;35.51
66486;BME280;53303;47.476;8.084;2023-02-22T05:32:55;95017.28;;;20.05;35.48
66486;BME280;53303;47.476;8.084;2023-02-22T05:35:24;95000.03;;;19.93;35.70
66486;BME280;53303;47.476;8.084;2023-02-22T05:37:53;95019.31;;;20.05;35.72
66486;BME280;53303;47.476;8.084;2023-02-22T05:40:23;95022.81;;;20.05;35.51
66486;BME280;53303;47.476;8.084;2023-02-22T05:42:52;95015.28;;;20.06;35.57
66486;BME280;53303;47.476;8.084;2023-02-22T05:45:20;95019.31;;;20.05;35.62
66486;BME280;53303;47.476;8.084;2023-02-22T05:47:48;95006.78;;;19.98;35.26
66486;BME280;53303;47.476;8.084;2023-02-22T05:50:13;95004.53;;;19.96;35.52
66486;BME280;53303;47.476;8.084;2023-02-22T05:52:39;94991.28;;;19.89;35.60
66486;BME280;53303;47.476;8.084;2023-02-22T05:55:09;95010.25;;;20.04;35.57
66486;BME280;53303;47.476;8.084;2023-02-22T05:57:34;94994.50;;;19.93;35.67
66486;BME280;53303;47.476;8.084;2023-02-22T06:00:04;95008.75;;;20.03;35.64
66486;BME280;53303;47.476;8.084;2023-02-22T06:02:33;94986.25;;;19.88;35.51
66486;BME280;53303;47.476;8.084;2023-02-22T06:04:58;94980.69;;;19.88;35.79
66486;BME280;53303;47.476;8.084;2023-02-22T06:07:24;94986.25;;;19.88;35.60
66486;BME280;53303;47.476;8.084;2023-02-22T06:09:49;94984.00;;;19.86;35.74
66486;BME280;53303;47.476;8.084;2023-02-22T06:12:17;94988.72;;;19.91;35.46
66486;BME280;53303;47.476;8.084;2023-02-22T06:14:45;94994.03;;;19.89;35.76
66486;BME280;53303;47.476;8.084;2023-02-22T06:17:12;95005.97;;;20.03;35.66
66486;BME280;53303;47.476;8.084;2023-02-22T06:19:38;94992.00;;;19.90;35.65
66486;BME280;53303;47.476;8.084;2023-02-22T06:22:04;94996.53;;;19.93;35.58
66486;BME280;53303;47.476;8.084;2023-02-22T06:24:30;95004.00;;;19.98;35.63
66486;BME280;53303;47.476;8.084;2023-02-22T06:26:57;94996.25;;;19.91;35.64
66486;BME280;53303;47.476;8.084;2023-02-22T06:29:27;95019.81;;;20.03;35.76
66486;BME280;53303;47.476;8.084;2023-02-22T06:31:57;95003.31;;;19.92;35.62
66486;BME280;53303;47.476;8.084;2023-02-22T06:34:26;95008.06;;;19.97;35.58
66486;BME280;53303;47.476;8.084;2023-02-22T06:36:53;94987.31;;;19.79;35.68
66486;BME280;53303;47.476;8.084;2023-02-22T06:39:21;95029.41;;;20.02;35.63
66486;BME280;53303;47.476;8.084;2023-02-22T06:41:50;95002.38;;;19.84;35.72
66486;BME280;53303;47.476;8.084;2023-02-22T06:44:18;95039.22;;;20.03;35.73
66486;BME280;53303;47.476;8.084;2023-02-22T06:46:48;95037.22;;;20.04;35.66
66486;BME280;53303;47.476;8.084;2023-02-22T06:49:18;95027.66;;;19.99;35.49
66486;BME280;53303;47.476;8.084;2023-02-22T06:51:44;94995.69;;;19.73;35.50
66486;BME280;53303;47.476;8.084;2023-02-22T06:54:10;95035.69;;;20.03;35.60
66486;BME280;53303;47.476;8.084;2023-02-22T06:56:35;95003.69;;;19.77;35.58
66486;BME280;53303;47.476;8.084;2023-02-22T06:59:01;95030.25;;;19.91;35.62
66486;BME280;53303;47.476;8.084;2023-02-22T07:01:27;95043.25;;;20.02;35.69
66486;BME280;53303;47.476;8.084;2023-02-22T07:03:54;95013.22;;;19.82;35.52
66486;BME280;53303;47.476;8.084;2023-02-22T07:06:20;95021.19;;;19.91;35.78
66486;BME280;53303;47.476;8.084;2023-02-22T07:08:47;95037.22;;;20.04;35.71
66486;BME280;53303;47.476;8.084;2023-02-22T07:11:15;95011.44;;;19.84;35.55
66486;BME280;53303;47.476;8.084;2023-02-22T07:13:43;95031.97;;;20.00;35.72
66486;BME280;53303;47.476;8.084;2023-02-22T07:16:10;95030.22;;;19.97;35.65
66486;BME280;53303;47.476;8.084;2023-02-22T07:18:36;95041.97;;;20.03;35.52
66486;BME280;53303;47.476;8.084;2023-02-22T07:21:04;95026.22;;;19.92;35.51
66486;BME280;53303;47.476;8.084;2023-02-22T07:23:29;95025.00;;;19.88;35.60
66486;BME280;53303;47.476;8.084;2023-02-22T07:26:00;95040.78;;;19.99;35.69
66486;BME280;53303;47.476;8.084;2023-02-22T07:28:28;95036.53;;;19.92;35.49
66486;BME280;53303;47.476;8.084;2023-02-22T07:30:56;95028.50;;;19.88;35.46
66486;BME280;53303;47.476;8.084;2023-02-22T07:33:21;95003.69;;;19.71;35.53
66486;BME280;53303;47.476;8.084;2023-02-22T07:35:48;95047.06;;;19.99;35.43
66486;BME280;53303;47.476;8.084;2023-02-22T07:38:18;95043.31;;;19.96;35.53
66486;BME280;53303;47.476;8.084;2023-02-22T07:40:45;95045.81;;;20.00;35.53
66486;BME280;53303;47.476;8.084;2023-02-22T07:43:22;95050.28;;;20.03;35.39
66486;BME280;53303;47.476;8.084;2023-02-22T07:45:51;95046.31;;;19.99;35.38
66486;BME280;53303;47.476;8.084;2023-02-22T07:48:21;95040.81;;;19.93;35.54
66486;BME280;53303;47.476;8.084;2023-02-22T07:50:48;95020.78;;;19.81;35.57
66486;BME280;53303;47.476;8.084;2023-02-22T07:53:25;95047.53;;;20.03;35.49
66486;BME280;53303;47.476;8.084;2023-02-22T07:55:57;95048.28;;;20.04;35.50
66486;BME280;53303;47.476;8.084;2023-02-22T07:58:27;95051.81;;;20.04;35.52
66486;BME280;53303;47.476;8.084;2023-02-22T08:00:55;95028.47;;;19.94;35.53
66486;BME280;53303;47.476;8.084;2023-02-22T08:03:22;95037.50;;;19.94;35.48
66486;BME280;53303;47.476;8.084;2023-02-22T08:05:54;95047.75;;;20.05;35.42
66486;BME280;53303;47.476;8.084;2023-02-22T08:08:20;95019.25;;;19.80;35.41
66486;BME280;53303;47.476;8.084;2023-02-22T08:10:46;95047.75;;;20.05;35.44
66486;BME280;53303;47.476;8.084;2023-02-22T08:13:15;95040.22;;;20.06;35.42
66486;BME280;53303;47.476;8.084;2023-02-22T08:15:41;95031.47;;;19.96;35.57
66486;BME280;53303;47.476;8.084;2023-02-22T08:18:14;95046.25;;;20.04;35.31
66486;BME280;53303;47.476;8.084;2023-02-22T08:20:41;95040.94;;;20.06;35.37
66486;BME280;53303;47.476;8.084;2023-02-22T08:23:07;95045.25;;;20.02;35.47
66486;BME280;53303;47.476;8.084;2023-02-22T08:25:34;95049.25;;;20.06;35.38
66486;BME280;53303;47.476;8.084;2023-02-22T08:28:05;95004.72;;;19.74;35.46
66486;BME280;53303;47.476;8.084;2023-02-22T08:30:34;95001.44;;;19.75;35.43
66486;BME280;53303;47.476;8.084;2023-02-22T08:33:03;95040.94;;;20.06;35.56
66486;BME280;53303;47.476;8.084;2023-02-22T08:35:43;95032.53;;;19.93;35.44
66486;BME280;53303;47.476;8.084;2023-02-22T08:41:27;95026.50;;;19.89;35.43
66486;BME280;53303;47.476;8.084;2023-02-22T08:43:59;95037.22;;;19.98;35.58
66486;BME280;53303;47.476;8.084;2023-02-22T08:46:26;95027.72;;;19.93;35.50
66486;BME280;53303;47.476;8.084;2023-02-22T08:48:57;95051.28;;;20.06;35.53
66486;BME280;53303;47.476;8.084;2023-02-22T08:51:25;95026.97;;;19.93;35.56
66486;BME280;53303;47.476;8.084;2023-02-22T08:53:51;95040.22;;;20.06;35.50
66486;BME280;53303;47.476;8.084;2023-02-22T08:56:18;95029.25;;;19.89;35.49
66486;BME280;53303;47.476;8.084;2023-02-22T08:58:54;95021.22;;;19.85;35.51
66486;BME280;53303;47.476;8.084;2023-02-22T09:01:25;95046.50;;;20.06;35.54
66486;BME280;53303;47.476;8.084;2023-02-22T09:03:53;95026.72;;;19.91;35.59
66486;BME280;53303;47.476;8.084;2023-02-22T09:06:20;95043.25;;;20.02;35.57
66486;BME280;53303;47.476;8.084;2023-02-22T09:08:46;95029.22;;;19.94;35.44
66486;BME280;53303;47.476;8.084;2023-02-22T09:11:11;95031.47;;;19.96;35.69
66486;BME280;53303;47.476;8.084;2023-02-22T09:13:37;95005.94;;;19.78;35.56
66486;BME280;53303;47.476;8.084;2023-02-22T09:16:02;95005.94;;;19.73;35.62
66486;BME280;53303;47.476;8.084;2023-02-22T09:18:30;95047.22;;;20.07;35.44
66486;BME280;53303;47.476;8.084;2023-02-22T09:21:01;95024.22;;;19.93;35.67
66486;BME280;53303;47.476;8.084;2023-02-22T09:23:29;95006.97;;;19.75;35.62
66486;BME280;53303;47.476;8.084;2023-02-22T09:25:57;94997.91;;;19.75;35.64
66486;BME280;53303;47.476;8.084;2023-02-22T09:28:25;95034.47;;;19.98;35.53
66486;BME280;53303;47.476;8.084;2023-02-22T09:30:51;95033.50;;;19.95;35.62
66486;BME280;53303;47.476;8.084;2023-02-22T09:33:20;95018.19;;;19.89;35.56
66486;BME280;53303;47.476;8.084;2023-02-22T09:35:48;95050.22;;;20.09;35.55
66486;BME280;53303;47.476;8.084;2023-02-22T09:38:20;95039.94;;;20.09;35.61
66486;BME280;53303;47.476;8.084;2023-02-22T09:40:54;95043.44;;;20.10;35.62
66486;BME280;53303;47.476;8.084;2023-02-22T09:43:43;95056.53;;;20.09;35.60
66486;BME280;53303;47.476;8.084;2023-02-22T09:46:42;95047.53;;;20.03;35.77
66486;BME280;53303;47.476;8.084;2023-02-22T09:49:31;95028.00;;;19.90;35.72
66486;BME280;53303;47.476;8.084;2023-02-22T09:52:04;95041.69;;;20.07;35.65
66486;BME280;53303;47.476;8.084;2023-02-22T09:57:21;95023.44;;;19.92;35.55
66486;BME280;53303;47.476;8.084;2023-02-22T10:02:51;95045.69;;;20.11;35.63
66486;BME280;53303;47.476;8.084;2023-02-22T10:05:34;95048.47;;;20.11;35.54
66486;BME280;53303;47.476;8.084;2023-02-22T10:08:08;95041.13;;;20.14;35.55
66486;BME280;53303;47.476;8.084;2023-02-22T10:10:40;95030.09;;;20.08;35.67
66486;BME280;53303;47.476;8.084;2023-02-22T10:13:34;95037.63;;;20.13;35.68
66486;BME280;53303;47.476;8.084;2023-02-22T10:19:11;95035.06;;;20.15;35.63
66486;BME280;53303;47.476;8.084;2023-02-22T10:24:28;95038.06;;;20.17;35.50
66486;BME280;53303;47.476;8.084;2023-02-22T10:27:07;95031.84;;;20.11;35.56
66486;BME280;53303;47.476;8.084;2023-02-22T10:29:48;95014.50;;;20.05;35.46
66486;BME280;53303;47.476;8.084;2023-02-22T10:32:26;95034.03;;;20.19;35.59
66486;BME280;53303;47.476;8.084;2023-02-22T10:34:57;95012.22;;;20.09;35.51
66486;BME280;53303;47.476;8.084;2023-02-22T10:40:00;95029.47;;;20.21;35.57
66486;BME280;53303;47.476;8.084;2023-02-22T10:42:30;95008.22;;;20.05;35.68
66486;BME280;53303;47.476;8.084;2023-02-22T10:44:58;95031.75;;;20.23;35.54
66486;BME280;53303;47.476;8.084;2023-02-22T10:47:24;95019.22;;;20.16;35.58
66486;BME280;53303;47.476;8.084;2023-02-22T10:49:55;95027.25;;;20.20;35.44
66486;BME280;53303;47.476;8.084;2023-02-22T10:52:28;95024.94;;;20.24;35.61
66486;BME280;53303;47.476;8.084;2023-02-22T10:54:56;95020.94;;;20.19;35.68
66486;BME280;53303;47.476;8.084;2023-02-22T10:57:26;95001.16;;;20.09;35.67
66486;BME280;53303;47.476;8.084;2023-02-22T10:59:53;95010.38;;;20.17;35.71
66486;BME280;53303;47.476;8.084;2023-02-22T11:02:33;95027.72;;;20.24;35.61
66486;BME280;53303;47.476;8.084;2023-02-22T11:05:00;95012.63;;;20.19;35.69
66486;BME280;53303;47.476;8.084;2023-02-22T11:09:59;95020.38;;;20.26;35.68
66486;BME280;53303;47.476;8.084;2023-02-22T11:12:34;95023.13;;;20.26;35.62
66486;BME280;53303;47.476;8.084;2023-02-22T11:17:41;95018.38;;;20.27;35.48
66486;BME280;53303;47.476;8.084;2023-02-22T11:20:37;94997.09;;;20.10;35.44
66486;BME280;53303;47.476;8.084;2023-02-22T11:23:05;94978.00;;;20.07;35.75
66486;BME280;53303;47.476;8.084;2023-02-22T11:25:35;95001.25;;;20.23;35.58
66486;BME280;53303;47.476;8.084;2023-02-22T11:30:48;95006.00;;;20.28;35.55
66486;BME280;53303;47.476;8.084;2023-02-22T11:36:01;94981.53;;;20.07;35.82
66486;BME280;53303;47.476;8.084;2023-02-22T11:38:36;94987.19;;;20.21;35.65
66486;BME280;53303;47.476;8.084;2023-02-22T11:43:43;94985.22;;;20.15;35.48
66486;BME280;53303;47.476;8.084;2023-02-22T11:46:13;95004.22;;;20.30;35.23
66486;BME280;53303;47.476;8.084;2023-02-22T11:49:02;94978.13;;;20.20;35.82
66486;BME280;53303;47.476;8.084;2023-02-22T11:52:23;94992.38;;;20.30;35.63
66486;BME280;53303;47.476;8.084;2023-02-22T12:08:04;94971.56;;;20.23;35.61
66486;BME280;53303;47.476;8.084;2023-02-22T12:11:06;94979.00;;;20.34;35.57
66486;BME280;53303;47.476;8.084;2023-02-22T12:22:06;94959.13;;;20.30;35.66
66486;BME280;53303;47.476;8.084;2023-02-22T12:24:47;94949.72;;;20.14;35.73
66486;BME280;53303;47.476;8.084;2023-02-22T12:27:46;94970.16;;;20.35;35.52
66486;BME280;53303;47.476;8.084;2023-02-22T12:30:23;94960.81;;;20.39;35.60
66486;BME280;53303;47.476;8.084;2023-02-22T12:32:52;94970.63;;;20.40;35.67
66486;BME280;53303;47.476;8.084;2023-02-22T12:35:23;94964.56;;;20.41;35.56
66486;BME280;53303;47.476;8.084;2023-02-22T12:43:49;94955.84;;;20.31;35.54
66486;BME280;53303;47.476;8.084;2023-02-22T13:00:25;94964.06;;;20.43;35.83
66486;BME280;53303;47.476;8.084;2023-02-22T13:02:57;94966.63;;;20.35;35.71
66486;BME280;53303;47.476;8.084;2023-02-22T13:05:24;94950.72;;;20.41;35.69
66486;BME280;53303;47.476;8.084;2023-02-22T13:11:00;94964.50;;;20.47;35.79
66486;BME280;53303;47.476;8.084;2023-02-22T13:16:47;94959.59;;;20.34;35.89
66486;BME280;53303;47.476;8.084;2023-02-22T13:22:04;94957.44;;;20.46;35.76
66486;BME280;53303;47.476;8.084;2023-02-22T13:27:21;94954.97;;;20.42;35.72
66486;BME280;53303;47.476;8.084;2023-02-22T13:29:54;94956.69;;;20.45;35.79
66486;BME280;53303;47.476;8.084;2023-02-22T13:32:45;94959.25;;;20.43;35.77
66486;BME280;53303;47.476;8.084;2023-02-22T13:49:05;94962.75;;;20.44;35.71
66486;BME280;53303;47.476;8.084;2023-02-22T13:52:07;94968.88;;;20.37;35.96
66486;BME280;53303;47.476;8.084;2023-02-22T13:54:49;94953.59;;;20.30;35.79
66486;BME280;53303;47.476;8.084;2023-02-22T13:57:28;94968.81;;;20.42;35.71
66486;BME280;53303;47.476;8.084;2023-02-22T14:13:18;94945.78;;;20.28;35.53
66486;BME280;53303;47.476;8.084;2023-02-22T14:16:16;94959.84;;;20.36;35.81
66486;BME280;53303;47.476;8.084;2023-02-22T14:18:44;94968.09;;;20.42;35.78
66486;BME280;53303;47.476;8.084;2023-02-22T14:21:16;94964.06;;;20.43;36.02
66486;BME280;53303;47.476;8.084;2023-02-22T14:23:51;94962.53;;;20.42;35.86
66486;BME280;53303;47.476;8.084;2023-02-22T14:26:33;94958.03;;;20.39;35.72
66486;BME280;53303;47.476;8.084;2023-02-22T14:29:00;94961.78;;;20.41;35.94
66486;BME280;53303;47.476;8.084;2023-02-22T14:31:32;94944.75;;;20.31;36.15
66486;BME280;53303;47.476;8.084;2023-02-22T14:34:14;94961.53;;;20.39;35.98
66486;BME280;53303;47.476;8.084;2023-02-22T14:36:43;94958.25;;;20.41;35.84
66486;BME280;53303;47.476;8.084;2023-02-22T14:39:17;94947.47;;;20.37;35.95
66486;BME280;53303;47.476;8.084;2023-02-22T14:41:57;94923.25;;;20.19;36.01
66486;BME280;53303;47.476;8.084;2023-02-22T14:44:30;94940.31;;;20.23;35.80
66486;BME280;53303;47.476;8.084;2023-02-22T14:46:58;94963.06;;;20.40;36.00
66486;BME280;53303;47.476;8.084;2023-02-22T14:49:34;94946.28;;;20.32;36.03
66486;BME280;53303;47.476;8.084;2023-02-22T14:52:10;94962.31;;;20.40;35.99
66486;BME280;53303;47.476;8.084;2023-02-22T15:00:47;94957.81;;;20.37;35.92
66486;BME280;53303;47.476;8.084;2023-02-22T15:05:48;94951.53;;;20.36;36.20
66486;BME280;53303;47.476;8.084;2023-02-22T15:08:18;94948.34;;;20.26;36.00
66486;BME280;53303;47.476;8.084;2023-02-22T15:10:52;94946.56;;;20.29;36.11
66486;BME280;53303;47.476;8.084;2023-02-22T15:13:27;94958.53;;;20.37;36.19
66486;BME280;53303;47.476;8.084;2023-02-22T15:16:02;94961.31;;;20.37;36.01
66486;BME280;53303;47.476;8.084;2023-02-22T15:18:43;94951.81;;;20.32;36.09
66486;BME280;53303;47.476;8.084;2023-02-22T15:21:16;94956.53;;;20.38;36.09
66486;BME280;53303;47.476;8.084;2023-02-22T15:23:51;94946.09;;;20.25;36.01
66486;BME280;53303;47.476;8.084;2023-02-22T15:28:57;94955.84;;;20.31;36.15
66486;BME280;53303;47.476;8.084;2023-02-22T15:31:30;94960.56;;;20.37;36.32
66486;BME280;53303;47.476;8.084;2023-02-22T15:36:42;94965.38;;;20.36;36.25
66486;BME280;53303;47.476;8.084;2023-02-22T15:42:17;94961.38;;;20.31;36.08
66486;BME280;53303;47.476;8.084;2023-02-22T15:44:49;94965.19;;;20.28;36.24
66486;BME280;53303;47.476;8.084;2023-02-22T15:47:27;94972.47;;;20.31;36.17
66486;BME280;53303;47.476;8.084;2023-02-22T15:51:15;94966.94;;;20.31;36.24
66486;BME280;53303;47.476;8.084;2023-02-22T15:53:26;94963.19;;;20.29;36.18
66486;BME280;53303;47.476;8.084;2023-02-22T15:55:59;94956.13;;;20.28;36.31
66486;BME280;53303;47.476;8.084;2023-02-22T15:58:26;94958.38;;;20.29;36.41
66486;BME280;53303;47.476;8.084;2023-02-22T16:01:04;94961.59;;;20.33;36.29
66486;BME280;53303;47.476;8.084;2023-02-22T16:03:44;94964.38;;;20.33;36.23
66486;BME280;53303;47.476;8.084;2023-02-22T16:06:25;94960.34;;;20.34;36.32